createdAt,value
2023-01-05T00:01:07.670Z,99862.00
2023-01-05T00:03:35.774Z,99866.72
2023-01-05T00:06:04.653Z,99873.50
2023-01-05T00:08:36.682Z,99859.72
2023-01-05T00:11:30.288Z,99857.34
2023-01-05T00:14:15.747Z,99853.81
2023-01-05T00:17:01.685Z,99851.09
2023-01-05T00:19:47.521Z,99858.34
2023-01-05T00:22:32.373Z,99867.59
2023-01-05T00:25:07.381Z,99858.34
2023-01-05T00:27:37.965Z,99857.78
2023-01-05T00:30:05.576Z,99844.13
2023-01-05T00:32:32.146Z,99842.84
2023-01-05T00:34:59.441Z,99836.56
2023-01-05T00:37:30.467Z,99836.47
2023-01-05T00:39:57.068Z,99829.94
2023-01-05T00:42:24.895Z,99844.00
2023-01-05T00:44:51.588Z,99842.31
2023-01-05T00:47:18.216Z,99831.97
2023-01-05T00:49:44.806Z,99833.59
2023-01-05T00:52:11.388Z,99825.97
2023-01-05T00:54:38.014Z,99835.19
2023-01-05T00:57:07.107Z,99833.00
2023-01-05T00:59:33.739Z,99842.72
2023-01-05T01:02:00.477Z,99845.44
2023-01-05T01:04:27.212Z,99820.53
2023-01-05T01:06:54.761Z,99839.50
2023-01-05T01:09:21.414Z,99828.16
2023-01-05T01:11:48.423Z,99836.00
2023-01-05T01:14:15.189Z,99840.94
2023-01-05T01:16:43.028Z,99853.66
2023-01-05T01:19:14.379Z,99858.28
2023-01-05T01:21:41.178Z,99872.72
2023-01-05T01:24:08.166Z,99854.94
2023-01-05T01:26:34.701Z,99894.53
2023-01-05T01:29:01.265Z,99872.34
2023-01-05T01:31:27.838Z,99880.47
2023-01-05T01:33:54.423Z,99887.50
2023-01-05T01:36:20.999Z,99890.19
2023-01-05T01:38:47.542Z,99888.09
2023-01-05T01:41:14.146Z,99892.47
2023-01-05T01:43:45.538Z,99893.66
2023-01-05T01:46:14.227Z,99900.22
2023-01-05T01:48:48.802Z,99901.59
2023-01-05T01:51:22.888Z,99899.75
2023-01-05T01:53:57.948Z,99898.72
2023-01-05T01:56:27.326Z,99913.34
2023-01-05T01:58:54.348Z,99913.34
2023-01-05T02:01:21.281Z,99915.31
2023-01-05T02:03:48.045Z,99923.22
2023-01-05T02:06:15.236Z,99916.22
2023-01-05T02:08:42.513Z,99918.94
2023-01-05T02:11:24.675Z,99922.81
2023-01-05T02:14:12.416Z,99919.88
2023-01-05T02:16:54.326Z,99924.06
2023-01-05T02:19:38.975Z,99935.16
2023-01-05T02:22:53.794Z,99931.69
2023-01-05T02:25:33.152Z,99931.16
2023-01-05T02:28:37.990Z,99925.00
2023-01-05T02:31:18.747Z,99931.81
2023-01-05T02:34:09.412Z,99926.47
2023-01-05T02:36:54.948Z,99915.91
2023-01-05T02:39:26.696Z,99904.91
2023-01-05T02:42:11.796Z,99905.75
2023-01-05T02:44:38.507Z,99907.72
2023-01-05T02:47:08.339Z,99901.50
2023-01-05T02:49:41.097Z,99901.28
2023-01-05T02:52:09.717Z,99893.44
2023-01-05T02:54:52.459Z,99913.72
2023-01-05T02:58:00.676Z,99898.38
2023-01-05T03:00:36.300Z,99899.22
2023-01-05T03:03:11.757Z,99909.00
2023-01-05T03:05:49.119Z,99913.31
2023-01-05T03:08:27.659Z,99910.03
2023-01-05T03:11:23.802Z,99918.16
2023-01-05T03:14:01.007Z,99924.13
2023-01-05T03:16:35.316Z,99903.28
2023-01-05T03:19:25.148Z,99919.25
2023-01-05T03:22:13.580Z,99923.56
2023-01-05T03:25:00.394Z,99914.09
2023-01-05T03:27:46.863Z,99914.88
2023-01-05T03:30:32.762Z,99926.22
2023-01-05T03:33:27.627Z,99917.00
2023-01-05T03:35:58.475Z,99914.88
2023-01-05T03:38:31.049Z,99914.59
2023-01-05T03:41:01.317Z,99911.91
2023-01-05T03:43:28.279Z,99907.28
2023-01-05T03:45:57.284Z,99917.00
2023-01-05T03:48:27.307Z,99914.03
2023-01-05T03:50:54.227Z,99909.41
2023-01-05T03:53:20.984Z,99925.13
2023-01-05T03:55:47.566Z,99913.78
2023-01-05T03:58:14.132Z,99928.41
2023-01-05T04:00:40.705Z,99925.44
2023-01-05T04:03:09.222Z,99927.59
2023-01-05T04:05:36.217Z,99920.59
2023-01-05T04:08:02.895Z,99923.50
2023-01-05T04:10:29.567Z,99923.47
2023-01-05T04:12:56.298Z,99935.88
2023-01-05T04:15:23.250Z,99936.72
2023-01-05T04:17:49.889Z,99938.06
2023-01-05T04:20:16.896Z,99943.69
2023-01-05T04:22:43.426Z,99946.63
2023-01-05T04:25:10.461Z,99948.25
2023-01-05T04:27:37.074Z,99955.25
2023-01-05T04:30:04.812Z,99948.25
2023-01-05T04:32:31.374Z,99960.44
2023-01-05T04:34:57.941Z,99956.97
2023-01-05T04:37:24.597Z,99964.53
2023-01-05T04:39:51.393Z,99979.16
2023-01-05T04:42:17.980Z,99966.19
2023-01-05T04:44:44.577Z,99966.19
2023-01-05T04:47:11.260Z,99970.78
2023-01-05T04:49:37.799Z,99972.38
2023-01-05T04:52:04.534Z,99968.34
2023-01-05T04:54:31.205Z,99969.41
2023-01-05T04:56:57.740Z,99966.41
2023-01-05T04:59:24.303Z,99969.41
2023-01-05T05:01:51.044Z,99975.91
2023-01-05T05:04:17.639Z,99978.63
2023-01-05T05:06:44.210Z,99970.22
2023-01-05T05:09:10.783Z,99972.66
2023-01-05T05:11:37.333Z,99975.16
2023-01-05T05:14:03.905Z,99980.81
2023-01-05T05:16:30.591Z,99987.09
2023-01-05T05:18:57.679Z,99983.56
2023-01-05T05:21:24.247Z,99983.56
2023-01-05T05:23:50.846Z,99989.50
2023-01-05T05:26:17.537Z,99995.75
2023-01-05T05:28:44.220Z,100005.72
2023-01-05T05:31:10.898Z,100006.56
2023-01-05T05:33:38.175Z,100011.13
2023-01-05T05:36:06.021Z,100019.25
2023-01-05T05:38:32.695Z,100020.91
2023-01-05T05:40:59.269Z,100004.13
2023-01-05T05:43:25.815Z,100028.19
2023-01-05T05:45:52.465Z,100020.34
2023-01-05T05:48:19.404Z,100029.53
2023-01-05T05:50:46.080Z,100022.53
2023-01-05T05:53:12.708Z,100032.00
2023-01-05T05:55:39.342Z,100021.47
2023-01-05T05:58:06.054Z,100044.72
2023-01-05T06:00:32.901Z,100048.25
2023-01-05T06:02:59.623Z,100036.00
2023-01-05T06:05:26.284Z,100032.66
2023-01-05T06:07:52.887Z,100035.91
2023-01-05T06:10:19.528Z,100033.66
2023-01-05T06:12:46.328Z,100036.91
2023-01-05T06:15:12.979Z,100040.75
2023-01-05T06:17:39.643Z,100052.66
2023-01-05T06:20:07.130Z,100053.22
2023-01-05T06:22:33.816Z,100054.06
2023-01-05T06:25:00.359Z,100054.84
2023-01-05T06:27:26.964Z,100057.53
2023-01-05T06:29:53.593Z,100052.16
2023-01-05T06:32:20.193Z,100060.06
2023-01-05T06:34:46.854Z,100052.78
2023-01-05T06:37:13.471Z,100051.09
2023-01-05T06:39:40.004Z,100042.41
2023-01-05T06:42:06.662Z,100049.41
2023-01-05T06:44:33.387Z,100040.22
2023-01-05T06:46:59.949Z,100043.50
2023-01-05T06:49:26.514Z,100044.28
2023-01-05T06:51:53.493Z,100056.41
2023-01-05T06:54:20.077Z,100054.25
2023-01-05T06:56:46.795Z,100048.59
2023-01-05T06:59:13.502Z,100056.19
2023-01-05T07:01:40.221Z,100070.53
2023-01-05T07:04:07.043Z,100071.63
2023-01-05T07:06:35.133Z,100073.00
2023-01-05T07:09:02.218Z,100066.78
2023-01-05T07:11:28.923Z,100067.88
2023-01-05T07:13:55.505Z,100084.13
2023-01-05T07:16:22.171Z,100085.81
2023-01-05T07:18:48.832Z,100087.50
2023-01-05T07:21:15.446Z,100082.97
2023-01-05T07:23:42.082Z,100087.03
2023-01-05T07:26:09.883Z,100085.41
2023-01-05T07:28:38.146Z,100077.84
2023-01-05T07:31:07.426Z,100089.75
2023-01-05T07:33:39.579Z,100087.59
2023-01-05T07:36:07.561Z,100088.66
2023-01-05T07:38:34.280Z,100089.22
2023-01-05T07:41:01.611Z,100089.50
2023-01-05T07:43:28.465Z,100106.81
2023-01-05T07:46:03.011Z,100107.63
2023-01-05T07:48:29.966Z,100083.00
2023-01-05T07:51:04.585Z,100091.91
2023-01-05T07:53:35.579Z,100108.94
2023-01-05T07:56:06.368Z,100115.19
2023-01-05T07:58:33.423Z,100121.66
2023-01-05T08:01:08.693Z,100115.75
2023-01-05T08:03:35.893Z,100126.00
2023-01-05T08:06:10.084Z,100124.38
2023-01-05T08:08:36.728Z,100127.59
2023-01-05T08:11:08.045Z,100137.88
2023-01-05T08:13:55.172Z,100145.47
2023-01-05T08:16:22.582Z,100135.44
2023-01-05T08:18:49.226Z,100138.44
2023-01-05T08:21:15.833Z,100140.56
2023-01-05T08:23:42.572Z,100150.88
2023-01-05T08:26:13.167Z,100143.84
2023-01-05T08:28:40.163Z,100148.16
2023-01-05T08:31:10.229Z,100140.56
2023-01-05T08:33:36.772Z,100145.97
2023-01-05T08:36:09.232Z,100153.00
2023-01-05T08:38:36.053Z,100151.41
2023-01-05T08:41:02.841Z,100156.25
2023-01-05T08:43:29.588Z,100144.63
2023-01-05T08:45:56.225Z,100151.88
2023-01-05T08:48:23.136Z,100148.63
2023-01-05T08:50:49.854Z,100149.16
2023-01-05T08:53:16.431Z,100159.72
2023-01-05T08:55:43.037Z,100158.59
2023-01-05T08:58:09.594Z,100158.88
2023-01-05T09:00:36.113Z,100158.88
2023-01-05T09:03:02.879Z,100159.66
2023-01-05T09:05:29.620Z,100160.47
2023-01-05T09:07:56.252Z,100169.91
2023-01-05T09:10:23.032Z,100164.75
2023-01-05T09:12:49.638Z,100170.75
2023-01-05T09:15:16.215Z,100167.50
2023-01-05T09:17:42.938Z,100177.50
2023-01-05T09:20:09.892Z,100182.59
2023-01-05T09:22:36.678Z,100180.44
2023-01-05T09:25:04.488Z,100174.47
2023-01-05T09:27:31.095Z,100181.50
2023-01-05T09:29:57.664Z,100181.75
2023-01-05T09:32:24.683Z,100186.59
2023-01-05T09:34:51.307Z,100194.44
2023-01-05T09:37:17.962Z,100195.50
2023-01-05T09:39:44.605Z,100188.97
2023-01-05T09:42:17.784Z,100190.03
2023-01-05T09:44:56.937Z,100187.06
2023-01-05T09:47:41.392Z,100189.16
2023-01-05T09:50:20.623Z,100191.03
2023-01-05T09:52:49.548Z,100213.50
2023-01-05T09:55:18.543Z,100209.16
2023-01-05T09:58:05.331Z,100208.09
2023-01-05T10:00:33.282Z,100215.88
2023-01-05T10:03:03.892Z,100208.78
2023-01-05T10:05:33.108Z,100215.28
2023-01-05T10:08:07.194Z,100203.91
2023-01-05T10:11:13.514Z,100208.75
2023-01-05T10:13:50.160Z,100213.31
2023-01-05T10:16:18.054Z,100208.13
2023-01-05T10:18:45.641Z,100203.19
2023-01-05T10:21:27.940Z,100199.94
2023-01-05T10:24:09.609Z,100202.44
2023-01-05T10:27:24.103Z,100200.84
2023-01-05T10:29:53.549Z,100207.88
2023-01-05T10:33:03.904Z,100209.19
2023-01-05T10:36:02.720Z,100201.63
2023-01-05T10:38:49.004Z,100206.41
2023-01-05T10:41:56.091Z,100210.22
2023-01-05T10:44:47.844Z,100206.16
2023-01-05T10:47:14.932Z,100209.38
2023-01-05T10:49:45.221Z,100202.63
2023-01-05T10:52:17.669Z,100201.53
2023-01-05T10:54:56.818Z,100199.09
2023-01-05T10:57:34.792Z,100197.97
2023-01-05T11:00:15.756Z,100198.19
2023-01-05T11:02:50.351Z,100193.84
2023-01-05T11:05:35.046Z,100193.84
2023-01-05T11:08:05.720Z,100181.09
2023-01-05T11:10:48.161Z,100186.78
2023-01-05T11:13:33.033Z,100180.81
2023-01-05T11:16:07.987Z,100187.84
2023-01-05T11:18:47.512Z,100178.03
2023-01-05T11:21:18.386Z,100180.94
2023-01-05T11:23:56.968Z,100177.13
2023-01-05T11:26:28.147Z,100177.13
2023-01-05T11:29:00.306Z,100170.09
2023-01-05T11:31:32.276Z,100164.41
2023-01-05T11:33:59.252Z,100165.47
2023-01-05T11:36:26.820Z,100177.31
2023-01-05T11:38:58.108Z,100169.19
2023-01-05T11:41:25.332Z,100171.31
2023-01-05T11:43:54.593Z,100164.28
2023-01-05T11:46:22.927Z,100169.38
2023-01-05T11:48:55.722Z,100172.09
2023-01-05T11:51:40.102Z,100170.22
2023-01-05T11:54:28.739Z,100179.41
2023-01-05T11:57:18.542Z,100167.44
2023-01-05T11:59:47.130Z,100172.47
2023-01-05T12:02:25.945Z,100173.38
2023-01-05T12:05:22.218Z,100175.19
2023-01-05T12:07:55.323Z,100165.97
2023-01-05T12:10:33.268Z,100166.47
2023-01-05T12:13:23.270Z,100162.97
2023-01-05T12:15:55.996Z,100162.97
2023-01-05T12:18:25.075Z,100167.81
2023-01-05T12:21:15.007Z,100178.94
2023-01-05T12:23:56.451Z,100170.81
2023-01-05T12:26:36.655Z,100167.38
2023-01-05T12:34:00.094Z,100163.66
2023-01-05T12:35:42.517Z,100152.28
2023-01-05T12:38:38.001Z,100162.69
2023-01-05T12:41:22.136Z,100162.16
2023-01-05T12:44:01.601Z,100160.53
2023-01-05T12:46:50.001Z,100162.63
2023-01-05T12:49:25.690Z,100159.28
2023-01-05T12:52:13.605Z,100156.97
2023-01-05T12:54:58.549Z,100153.63
2023-01-05T12:57:33.666Z,100158.19
2023-01-05T13:00:06.485Z,100162.50
2023-01-05T13:02:36.596Z,100164.47
2023-01-05T13:05:32.608Z,100154.78
2023-01-05T13:08:17.592Z,100156.97
2023-01-05T13:10:57.005Z,100156.97
2023-01-05T13:14:00.707Z,100150.53
2023-01-05T13:16:40.015Z,100154.94
2023-01-05T13:19:34.499Z,100155.00
2023-01-05T13:22:14.402Z,100150.16
2023-01-05T13:24:55.116Z,100148.78
2023-01-05T13:27:21.759Z,100151.69
2023-01-05T13:29:54.338Z,100155.13
2023-01-05T13:35:28.699Z,100154.31
2023-01-05T13:38:37.263Z,100140.25
2023-01-05T13:41:28.743Z,100151.88
2023-01-05T13:44:28.536Z,100141.88
2023-01-05T13:47:27.770Z,100138.66
2023-01-05T13:50:03.739Z,100137.81
2023-01-05T13:52:39.231Z,100139.16
2023-01-05T13:55:17.727Z,100149.47
2023-01-05T13:57:49.254Z,100143.56
2023-01-05T14:00:25.021Z,100141.88
2023-01-05T14:03:00.329Z,100135.28
2023-01-05T14:05:31.953Z,100146.06
2023-01-05T14:08:02.831Z,100144.38
2023-01-05T14:10:32.389Z,100143.81
2023-01-05T14:12:59.679Z,100143.50
2023-01-05T14:15:35.105Z,100150.38
2023-01-05T14:18:03.262Z,100148.03
2023-01-05T14:21:00.722Z,100150.53
2023-01-05T14:23:27.313Z,100151.38
2023-01-05T14:26:03.890Z,100145.75
2023-01-05T14:28:30.434Z,100147.88
2023-01-05T14:31:15.626Z,100154.16
2023-01-05T14:33:57.435Z,100157.19
2023-01-05T14:36:37.581Z,100151.53
2023-01-05T14:39:21.945Z,100161.06
2023-01-05T14:41:57.346Z,100156.50
2023-01-05T14:44:31.203Z,100161.13
2023-01-05T14:46:58.552Z,100154.63
2023-01-05T14:49:36.826Z,100160.63
2023-01-05T14:52:06.938Z,100159.84
2023-01-05T14:54:42.809Z,100157.97
2023-01-05T14:57:30.926Z,100162.34
2023-01-05T15:00:06.341Z,100160.09
2023-01-05T15:02:42.583Z,100158.75
2023-01-05T15:05:14.304Z,100159.59
2023-01-05T15:07:55.065Z,100155.00
2023-01-05T15:10:45.376Z,100156.81
2023-01-05T15:14:05.571Z,100154.69
2023-01-05T15:16:41.348Z,100146.09
2023-01-05T15:19:26.309Z,100145.84
2023-01-05T15:22:48.247Z,100148.34
2023-01-05T15:25:23.576Z,100149.41
2023-01-05T15:28:02.243Z,100153.22
2023-01-05T15:30:38.061Z,100148.91
2023-01-05T15:33:13.741Z,100148.91
2023-01-05T15:36:01.174Z,100151.69
2023-01-05T15:38:29.974Z,100150.31
2023-01-05T15:41:09.197Z,100150.88
2023-01-05T15:43:39.001Z,100144.13
2023-01-05T15:46:06.184Z,100143.03
2023-01-05T15:48:38.246Z,100143.81
2023-01-05T15:51:05.873Z,100145.53
2023-01-05T15:53:38.052Z,100147.41
2023-01-05T15:56:07.005Z,100132.78
2023-01-05T15:58:43.457Z,100133.03
2023-01-05T16:01:16.079Z,100138.97
2023-01-05T16:03:45.332Z,100131.94
2023-01-05T16:06:16.575Z,100136.06
2023-01-05T16:08:46.408Z,100143.59
2023-01-05T16:11:17.973Z,100138.47
2023-01-05T16:13:57.042Z,100138.75
2023-01-05T16:16:51.297Z,100137.16
2023-01-05T16:19:39.064Z,100140.13
2023-01-05T16:22:21.501Z,100139.88
2023-01-05T16:24:58.919Z,100137.72
2023-01-05T16:27:26.030Z,100137.72
2023-01-05T16:29:52.770Z,100129.59
2023-01-05T16:32:36.961Z,100127.94
2023-01-05T16:35:23.956Z,100124.72
2023-01-05T16:38:13.033Z,100128.00
2023-01-05T16:40:45.774Z,100122.59
2023-01-05T16:43:32.626Z,100127.78
2023-01-05T16:46:21.220Z,100126.16
2023-01-05T16:48:51.922Z,100121.53
2023-01-05T16:51:21.323Z,100117.22
2023-01-05T16:53:52.569Z,100125.91
2023-01-05T16:56:20.382Z,100127.53
2023-01-05T16:58:46.999Z,100109.09
2023-01-05T17:01:13.497Z,100107.75
2023-01-05T17:03:41.151Z,100113.16
2023-01-05T17:06:21.487Z,100109.09
2023-01-05T17:08:48.591Z,100102.06
2023-01-05T17:11:15.493Z,100103.44
2023-01-05T17:13:48.593Z,100112.06
2023-01-05T17:16:15.697Z,100096.66
2023-01-05T17:18:42.468Z,100103.69
2023-01-05T17:21:14.616Z,100111.75
2023-01-05T17:23:47.283Z,100107.44
2023-01-05T17:26:27.540Z,100108.25
2023-01-05T17:28:57.831Z,100104.69
2023-01-05T17:31:24.673Z,100109.00
2023-01-05T17:33:51.244Z,100104.66
2023-01-05T17:36:19.524Z,100108.47
2023-01-05T17:38:47.436Z,100114.91
2023-01-05T17:41:16.050Z,100110.53
2023-01-05T17:43:44.874Z,100112.97
2023-01-05T17:46:17.834Z,100109.16
2023-01-05T17:48:44.556Z,100105.59
2023-01-05T17:51:11.130Z,100103.38
2023-01-05T17:53:37.690Z,100095.78
2023-01-05T17:56:04.563Z,100098.50
2023-01-05T17:58:31.180Z,100098.50
2023-01-05T18:00:57.727Z,100094.69
2023-01-05T18:03:24.317Z,100099.59
2023-01-05T18:05:52.798Z,100102.81
2023-01-05T18:08:21.177Z,100104.16
2023-01-05T18:10:48.009Z,100111.50
2023-01-05T18:13:15.812Z,100099.25
2023-01-05T18:15:46.832Z,100104.94
2023-01-05T18:18:14.080Z,100098.13
2023-01-05T18:20:41.562Z,100101.09
2023-01-05T18:23:10.040Z,100094.56
2023-01-05T18:25:39.251Z,100095.38
2023-01-05T18:28:06.129Z,100090.75
2023-01-05T18:30:32.837Z,100095.59
2023-01-05T18:32:59.399Z,100090.50
2023-01-05T18:35:25.991Z,100087.53
2023-01-05T18:40:21.690Z,100088.94
2023-01-05T18:42:48.267Z,100083.22
2023-01-05T18:45:19.448Z,100086.44
2023-01-05T18:47:55.005Z,100090.75
2023-01-05T18:50:21.575Z,100082.06
2023-01-05T18:52:48.861Z,100086.38
2023-01-05T18:55:15.557Z,100080.16
2023-01-05T18:57:42.159Z,100093.41
2023-01-05T19:00:09.607Z,100089.38
2023-01-05T19:02:36.138Z,100088.56
2023-01-05T19:05:02.861Z,100090.75
2023-01-05T19:07:29.418Z,100077.53
2023-01-05T19:09:55.941Z,100085.84
2023-01-05T19:12:22.529Z,100091.78
2023-01-05T19:14:49.082Z,100082.06
2023-01-05T19:17:15.632Z,100088.56
2023-01-05T19:19:42.297Z,100088.56
2023-01-05T19:22:08.870Z,100092.38
2023-01-05T19:24:35.524Z,100082.06
2023-01-05T19:27:02.272Z,100089.09
2023-01-05T19:29:28.900Z,100080.41
2023-01-05T19:31:55.452Z,100081.19
2023-01-05T19:34:22.040Z,100078.50
2023-01-05T19:36:48.833Z,100068.47
2023-01-05T19:39:21.828Z,100068.16
2023-01-05T19:41:51.380Z,100076.03
2023-01-05T19:44:20.227Z,100071.69
2023-01-05T19:46:54.242Z,100065.75
2023-01-05T19:49:26.165Z,100065.22
2023-01-05T19:51:53.510Z,100067.13
2023-01-05T19:54:22.558Z,100066.31
2023-01-05T19:56:49.541Z,100066.31
2023-01-05T19:59:24.620Z,100056.28
2023-01-05T20:01:51.337Z,100064.34
2023-01-05T20:04:18.095Z,100061.66
2023-01-05T20:06:45.687Z,100054.84
2023-01-05T20:09:15.591Z,100065.38
2023-01-05T20:11:44.208Z,100063.50
2023-01-05T20:14:22.503Z,100062.16
2023-01-05T20:16:53.566Z,100060.56
2023-01-05T20:19:21.552Z,100056.53
2023-01-05T20:21:49.580Z,100057.06
2023-01-05T20:24:22.461Z,100057.31
2023-01-05T20:26:50.960Z,100051.91
2023-01-05T20:29:19.669Z,100051.66
2023-01-05T20:32:00.970Z,100050.06
2023-01-05T20:34:32.013Z,100051.66
2023-01-05T20:36:59.978Z,100046.25
2023-01-05T20:39:26.588Z,100051.66
2023-01-05T20:41:54.268Z,100045.72
2023-01-05T20:44:25.753Z,100044.63
2023-01-05T20:46:54.192Z,100047.34
2023-01-05T20:49:22.141Z,100047.66
2023-01-05T20:51:49.242Z,100049.53
2023-01-05T20:54:15.852Z,100050.88
2023-01-05T20:56:43.895Z,100051.66
2023-01-05T20:59:30.842Z,100062.50
2023-01-05T21:01:59.269Z,100057.09
2023-01-05T21:04:27.684Z,100053.66
2023-01-05T21:06:54.833Z,100058.25
2023-01-05T21:09:22.211Z,100063.66
2023-01-05T21:11:48.839Z,100058.84
2023-01-05T21:14:15.915Z,100066.44
2023-01-05T21:16:45.650Z,100061.63
2023-01-05T21:19:17.509Z,100059.47
2023-01-05T21:21:49.509Z,100055.16
2023-01-05T21:24:16.338Z,100048.63
2023-01-05T21:26:43.504Z,100054.31
2023-01-05T21:29:16.151Z,100049.16
2023-01-05T21:31:43.124Z,100054.56
2023-01-05T21:34:11.708Z,100052.38
2023-01-05T21:36:41.709Z,100046.97
2023-01-05T21:39:09.243Z,100044.78
2023-01-05T21:41:55.963Z,100043.91
2023-01-05T21:44:23.377Z,100042.22
2023-01-05T21:46:50.731Z,100045.53
2023-01-05T21:49:18.443Z,100040.69
2023-01-05T21:52:04.151Z,100040.97
2023-01-05T21:54:49.559Z,100042.91
2023-01-05T21:57:16.519Z,100035.41
2023-01-05T21:59:43.604Z,100036.78
2023-01-05T22:02:10.802Z,100039.78
2023-01-05T22:04:37.408Z,100044.38
2023-01-05T22:07:07.245Z,100039.84
2023-01-05T22:09:35.133Z,100036.31
2023-01-05T22:12:02.821Z,100030.66
2023-01-05T22:14:29.638Z,100035.28
2023-01-05T22:16:56.212Z,100039.16
2023-01-05T22:19:22.788Z,100039.75
2023-01-05T22:21:49.382Z,100031.69
2023-01-05T22:24:16.082Z,100040.13
2023-01-05T22:26:42.776Z,100032.34
2023-01-05T22:29:09.351Z,100043.75
2023-01-05T22:31:36.473Z,100030.53
2023-01-05T22:34:03.614Z,100042.44
2023-01-05T22:36:31.738Z,100040.63
2023-01-05T22:38:58.805Z,100046.59
2023-01-05T22:41:29.801Z,100045.53
2023-01-05T22:43:57.647Z,100050.41
2023-01-05T22:46:27.505Z,100047.72
2023-01-05T22:48:55.941Z,100047.44
2023-01-05T22:51:30.554Z,100047.72
2023-01-05T22:53:58.418Z,100039.91
2023-01-05T22:56:27.091Z,100035.84
2023-01-05T22:58:55.928Z,100031.53
2023-01-05T23:01:27.741Z,100039.41
2023-01-05T23:03:56.452Z,100044.28
2023-01-05T23:06:23.699Z,100044.59
2023-01-05T23:08:51.591Z,100044.59
2023-01-05T23:11:24.197Z,100041.91
2023-01-05T23:13:51.867Z,100037.63
2023-01-05T23:16:19.261Z,100041.41
2023-01-05T23:18:48.353Z,100041.66
2023-01-05T23:21:15.771Z,100031.13
2023-01-05T23:23:44.088Z,100033.31
2023-01-05T23:26:12.841Z,100023.81
2023-01-05T23:28:40.969Z,100024.88
2023-01-05T23:31:07.665Z,100021.06
2023-01-05T23:33:36.557Z,100013.78
2023-01-05T23:36:04.569Z,100019.47
2023-01-05T23:38:32.034Z,100014.88
2023-01-05T23:41:00.223Z,100013.22
2023-01-05T23:43:28.471Z,100007.03
2023-01-05T23:46:08.310Z,100002.97
2023-01-05T23:48:36.101Z,99996.78
2023-01-05T23:51:04.561Z,99994.66
2023-01-05T23:53:31.892Z,99989.03
2023-01-05T23:56:10.036Z,99985.31
2023-01-05T23:58:36.757Z,99991.84
